ADDS METAR Data INFO
IDs: Format: Raw Decoded Include TAF

Data at: 0025 UTC 15 Dec 2017

KLHX 142353Z AUTO 36008KT FEW055 BKN070 OVC090 02/M05 A3026 RMK AO2 SLP259 60001 T00171050 10061 20017 53022 TSNO $
KLHX 142253Z AUTO 02013KT OVC048 04/M04 A3024 RMK AO2 RAB2154E2157SNB2157E06 SLP242 P0001 T00391039 TSNO $
KLHX 142153Z AUTO 04018G21KT 9SM FEW038 SCT046 OVC060 04/M03 A3020 RMK AO2 SLP228 T00441028 TSNO $
KLHX 142053Z AUTO 30007KT FEW055 BKN075 OVC090 06/M03 A3019 RMK AO2 SLP223 T00561028 56015 TSNO $
KLHX 141953Z AUTO 33007KT 10SM OVC080 06/M03 A3019 RMK AO2 SLP222 T00561028 TSNO
KLHX 141853Z AUTO 30011KT FEW038 OVC080 06/M01 A3021 RMK AO2 SLP227 T00561011 TSNO $
KLHX 141753Z AUTO 28012KT 10SM OVC080 04/M01 A3024 RMK AO2 SLP241 60001 T00391006 10039 20000 58001 TSNO
KLHX 141653Z AUTO 27010KT OVC065 03/00 A3025 RMK AO2 SNE12 SLP243 P0000 T00280000 TSNO $
KLHX 141553Z AUTO 26009KT -SN BKN031 OVC040 01/M01 A3026 RMK AO2 SNE15B50 SLP243 P0000 T00111006 TSNO $
KLHX 141453Z AUTO 27008KT -SN BKN045 OVC060 01/M01 A3024 RMK AO2 SLP242 P0000 60001 T00061006 51016 TSNO
KLHX 141353Z AUTO 26005KT -SN OVC043 00/M01 A3023 RMK AO2 SLP239 P0001 T00001006 TSNO $
KLHX 141346Z AUTO 27005KT -SN OVC035 00/M01 A3023 RMK AO2 P0001 T00001006 TSNO $
KLHX 141311Z AUTO 30004KT -SN FEW004 OVC022 00/M01 A3022 RMK AO2 P0001 T00001006 TSNO $
KLHX 141253Z AUTO 33004KT 1 1/2SM -SN BR FEW004 OVC020 00/00 A3021 RMK AO2 SLP229 P0000 T00000000 TSNO $
KLHX 141243Z AUTO 34004KT -SN FEW004 OVC020 00/00 A3021 RMK AO2 P0000 T00000000 TSNO $
KLHX 141213Z AUTO 01005KT -SN BKN022 OVC030 01/M01 A3020 RMK AO2 P0000 T00061006 TSNO $
KLHX 141205Z AUTO 01006KT -SN BKN030 OVC075 01/M01 A3020 RMK AO2 P0000 T00061006 TSNO $
KLHX 141153Z AUTO 01008KT -SN BKN028 OVC075 01/M01 A3019 RMK AO2 SNB44 SLP219 P0000 60000 T00061011 10044 20006 53015 TSNO $
KLHX 141053Z AUTO 01015G19KT SCT060 OVC070 02/M04 A3017 RMK AO2 SLP210 T00221039 TSNO $
KLHX 140953Z AUTO 02009KT 10SM BKN050 OVC070 03/M09 A3016 RMK AO2 SLP198 T00281089 TSNO $
KLHX 140853Z AUTO 02006KT BKN090 OVC110 02/M08 A3014 RMK AO2 SLP193 T00221083 53012 TSNO $
KLHX 140753Z AUTO 03008KT SCT110 03/M09 A3012 RMK AO2 SLP183 T00331094 TSNO $
KLHX 140653Z AUTO 01006KT CLR 04/M09 A3011 RMK AO2 SLP180 T00391094 401441044 TSNO $
KLHX 140553Z AUTO 33005KT 10SM FEW110 04/M09 A3010 RMK AO2 SLP176 T00391094 10100 20039 53022 TSNO
KLHX 140453Z AUTO 04004KT 10SM CLR 06/M11 A3007 RMK AO2 SLP168 T00561106 TSNO
KLHX 140353Z AUTO 05007KT 10SM CLR 07/M11 A3005 RMK AO2 SLP162 T00721106 TSNO
KLHX 140253Z AUTO 05007KT 10SM CLR 07/M10 A3003 RMK AO2 SLP167 T00671100 53007 TSNO
KLHX 140153Z AUTO 08006KT 10SM CLR 07/M11 A3002 RMK AO2 SLP169 T00671106 TSNO
KLHX 140053Z AUTO 28003KT 10SM CLR 09/M11 A3001 RMK AO2 SLP165 T00891111 TSNO
KLHX 132353Z AUTO 00000KT 10SM CLR 09/M12 A3001 RMK AO2 SLP156 T00941117 10144 20089 56012 TSNO
KLHX 132253Z AUTO 23003KT 10SM CLR 09/M12 A3001 RMK AO2 SLP156 T00891117 TSNO
KLHX 132153Z AUTO 28004KT 10SM CLR 13/M12 A3002 RMK AO2 SLP152 T01281117 TSNO
KLHX 132053Z AUTO 36009KT 10SM CLR 13/M12 A3005 RMK AO2 SLP163 T01331117 56034 TSNO
KLHX 131953Z AUTO 01004KT 10SM CLR 13/M11 A3007 RMK AO2 SLP172 T01331111 TSNO
KLHX 131853Z AUTO 33006KT 10SM CLR 12/M11 A3012 RMK AO2 WSHFT 1740 SLP186 T01221111 TSNO
KLHX 131800Z AUTO 01010G17KT 10SM CLR 12/M11 A3016 RMK AO2 WSHFT 1740 T01171106 TSNO $
KLHX 131753Z AUTO 02012G17KT 10SM CLR 13/M11 A3016 RMK AO2 WSHFT 1738 SLP199 T01331106 10133 21044 50006 TSNO $
KLHX 131653Z AUTO 28005KT CLR 09/M11 A3017 RMK AO2 SLP210 T00891106 TSNO $
KLHX 131553Z AUTO 28005KT CLR 07/M11 A3016 RMK AO2 SLP208 T00671111 TSNO $
KLHX 131453Z AUTO 28004KT CLR 01/M10 A3014 RMK AO2 SLP206 T00111100 51029 TSNO $
KLHX 131353Z AUTO 22007KT CLR M03/M11 A3013 RMK AO2 SLP203 T10281106 TSNO $
KLHX 131253Z AUTO 00000KT CLR M03/M11 A3010 RMK AO2 SLP198 T10331111 TSNO $